• Join FlightAware (Why Join?)
  • Login
  • US Flag 
07:06PM EDT


 

Airport Tracker/Info


-or-


 

Live Flight TrackerFlight Track Log ✈ SWA525 ✈ 05-May-2013 ✈ KLIT - KDAL

Flight Track Log - Related Links

Times and Time Zones

All times are in EDT time to prevent confusion due to time zone crossing. See the SWA525 flight status page for this flight to view local times or setup timezone preferences in your user account.

Time Position Orientation Groundspeed Altitude Reporting Facility
EDT Latitude Longitude Course Direction KTS MPH feet Rate Location/Type
02:35PM 34.7372 -92.1944 35° Northeast 170 196 1,300  Level Memphis Center
02:35PM 34.7519 -92.1819 35° Northeast 175 201 2,200 2,100 Climbing Memphis Center
02:36PM 34.8036 -92.2161 332° Northwest 235 270 4,300 2,520 Climbing Memphis Center
02:38PM 34.7581 -92.3289 244° Southwest 276 318 8,600 2,760 Climbing Memphis Center
02:39PM 34.7006 -92.4058 228° Southwest 300 345 11,400 2,700 Climbing Memphis Center
02:40PM 34.6425 -92.5053 235° Southwest 337 388 14,100 2,700 Climbing Memphis Center
02:41PM 34.6031 -92.6206 247° West 357 411 16,900 2,640 Climbing Memphis Center
02:42PM 34.5633 -92.7406 248° West 376 433 19,400 2,400 Climbing Memphis Center
02:43PM 34.5211 -92.8603 247° West 388 447 21,800 2,400 Climbing Memphis Center
02:44PM 34.4789 -92.9850 248° West 400 460 24,200 2,340 Climbing Memphis Center
02:45PM 34.4367 -93.1122 248° West 400 460 26,500 1,860 Climbing Memphis Center
02:46PM 34.3919 -93.2389 247° West 407 468 28,000 1,560 Climbing Memphis Center
02:47PM 34.3453 -93.3658 246° West 407 468 29,700 1,740 Climbing Memphis Center
02:48PM 34.3042 -93.4967 249° West 409 471 31,400 1,560 Climbing Fort Worth Center
02:49PM 34.2603 -93.6242 247° West 392 451 32,700 1,260 Climbing Fort Worth Center
02:50PM 34.2139 -93.7494 246° West 405 466 34,000 600 Climbing Fort Worth Center
02:51PM 34.1717 -93.8767 248° West 405 466 34,000  Level Fort Worth Center
02:52PM 34.1250 -94.0039 246° West 410 472 34,000  Level Fort Worth Center
02:53PM 34.0803 -94.1311 247° West 410 472 34,000  Level Fort Worth Center
02:54PM 34.0336 -94.2556 246° West 410 472 34,000  Level Fort Worth Center
02:55PM 33.9886 -94.3850 247° West 410 472 34,000  Level Fort Worth Center
02:56PM 33.9417 -94.5144 246° West 416 479 34,000 -300 Level Fort Worth Center
02:57PM 33.8964 -94.6383 246° West 421 484 33,500 -840 Descending Fort Worth Center
02:58PM 33.8511 -94.7600 246° West 416 479 32,400 -1,020 Descending Fort Worth Center
02:59PM 33.8056 -94.8814 246° West 411 473 31,500 -1,020 Descending Fort Worth Center
03:00PM 33.7642 -95.0000 247° West 401 461 30,400 -1,140 Descending Fort Worth Center
03:01PM 33.7203 -95.1136 245° Southwest 390 449 29,300 -1,080 Descending Fort Worth Center
03:02PM 33.6806 -95.2219 246° West 375 432 28,300 -960 Descending Fort Worth Center
03:03PM 33.6386 -95.3353 246° West 368 423 27,400 -1,500 Descending Fort Worth Center
03:04PM 33.5947 -95.4533 246° West 373 429 25,300 -2,220 Descending Fort Worth Center
03:05PM 33.5506 -95.5717 246° West 385 443 23,000 -2,280 Descending Fort Worth Center
03:06PM 33.5103 -95.6844 247° West 378 435 20,800 -2,100 Descending Fort Worth Center
03:07PM 33.4719 -95.7847 245° Southwest 373 429 18,800 -2,100 Descending Fort Worth Center
03:08PM 33.4297 -95.9000 246° West 359 413 16,600 -2,220 Descending Fort Worth Center
03:09PM 33.3892 -96.0078 246° West 359 413 14,400 -2,220 Descending Fort Worth Center
03:10PM 33.3486 -96.1128 245° Southwest 359 413 12,200 -2,040 Descending Fort Worth Center
03:11PM 33.3100 -96.2128 245° Southwest 347 399 10,400 -1,380 Descending Fort Worth Center
03:12PM 33.2753 -96.3053 246° West 316 364 9,500 -720 Descending Fort Worth Center
03:13PM 33.2319 -96.3853 237° Southwest 301 346 9,000 -900 Descending Fort Worth Center
03:14PM 33.1806 -96.4628 232° Southwest 301 346 7,800 -1,200 Descending Fort Worth Center
03:15PM 33.1161 -96.5131 213° Southwest 287 330 6,600 -900 Descending Fort Worth Center
03:16PM 33.0433 -96.5461 201° Southwest 282 325 6,000 -660 Descending Fort Worth Center
03:17PM 32.9706 -96.5789 201° Southwest 287 330 5,300 -960 Descending Fort Worth Center
03:18PM 32.9081 -96.6092 202° Southwest 282 325 4,100 -660 Descending Fort Worth Center
03:19PM 32.8372 -96.6394 200° South 262 302 4,000 -180 Descending Fort Worth Center
03:20PM 32.7811 -96.6547 193° South 245 282 3,800 -540 Descending Fort Worth Center
03:21PM 32.7353 -96.7069 224° Southwest 205 236 3,000 -720 Descending Fort Worth Center
03:22PM 32.7692 -96.7536 311° West 158 182 2,400 -720 Descending Fort Worth Center
03:23PM 32.8000 -96.7833 321° Northwest 158 182 1,800 -780 Descending Dallas / Fort Worth TRACON
03:24PM 32.8167 -96.8167 301° West 130 150 1,100 -720 Descending Dallas / Fort Worth TRACON
03:26PM 32.8333 -96.8500 270° West  Level FlightAware Approximate